Airfield :
LOGIN :

Register | Disclaimer

   EN    FR    IT 

 










Legend :    VFR   Marginal VFR   IFR   Intensive IFR   Very Intensive IFR
Visi :
Ceiling :
>= 8 km
>= 3000ft
5 to 8 km
1000 to 3000 ft
1500m to 5 km
500 to 1000 ft
800 to 1500m
200 to 500 ft
< 800m
< 200 ft
Symbols :   Thunderstorms  Fog  Heavy snow  Heavy precipitations  Wind > 20 kt
SIGMETs :     Misc.  Thunderstorms  Icing  Turbulence  Mountain Waves  Volcanic Ashes






- Airport Elevation : 295 ft
- IATA code : ORN


DAOO - Es senia - Oran

CURRENT METAR :
  • 240630Z 15005KT 6000 NSC 07/06 Q1028

EXPIRED METARs :
  • 240600Z 16004KT 8000 FEW010 06/05 Q1028
  • 240530Z 15004KT 8000 FEW010 07/05 Q1028
  • 240500Z 20006KT 6000 SCT010 07/06 Q1028
  • 240430Z 21004KT 6000 SCT010 06/05 Q1028
  • 240400Z VRB01KT 4000 BR NSC 07/05 Q1028

TAF TAF DAOO
Valid from the 24 at 06:00 until the 25 at 06:00 UTC


240500Z 2406/2506 20010KT 6000 SCT010
TEMPO 2407/2409 0800 FG
BECMG 2410/2412 27010KT 8000 NSC
BECMG 2416/2418 VRB02KT 9999 FEW020
BECMG 2421/2424 26005KT 6000 NSC
TEMPO 2503/2506 0500 FG



MET'MAP, your aeronautical weather chart ! - Copyright ORBIFLY December 2007 - Disclaimer

ORBIFLY MET'MAP TEAM :

Programming & Development : Alexandra Zaïnal
Concept & original design : Baudouin d'Aumeries
Assistance for programming : Marc-Olivier Méhu
Technical & hardware support : Manuel Goepfert

Contact : metmap@orbifly.com




SOURCES & CREDITS :

   NOAA